Time;durP1;ratioP1;P1;durP2;ratioP2;P2;SDS_P1;SDS_P2;PMS_P1;PMS_P2;Temp;Humidity;BMP_temperature;BMP_pressure;BME280_temperature;BME280_humidity;BME280_pressure;Samples;Min_cycle;Max_cycle;Signal;HPM_P1;HPM_P2
2022/08/11 00:02:26;;;;;;;0.00;0.00;;;18.30;99.90;;;;;;4980093;28;20866;-66
2022/08/11 00:04:57;;;;;;;0.00;0.00;;;18.20;99.90;;;;;;4979626;28;20981;-67
2022/08/11 00:07:26;;;;;;;0.00;0.00;;;18.20;99.90;;;;;;4979818;28;20481;-66
2022/08/11 00:09:55;;;;;;;0.00;0.00;;;18.20;99.90;;;;;;4979712;28;20460;-67
2022/08/11 00:12:23;;;;;;;0.00;0.00;;;18.10;99.90;;;;;;4980072;28;20440;-67
2022/08/11 00:14:57;;;;;;;0.00;0.00;;;18.10;99.90;;;;;;4980025;28;20731;-67
2022/08/11 00:17:29;;;;;;;0.00;0.00;;;18.00;99.90;;;;;;4979839;28;20426;-67
2022/08/11 00:20:05;;;;;;;0.00;0.00;;;18.00;99.90;;;;;;4979940;28;20825;-67
2022/08/11 00:22:45;;;;;;;0.00;0.00;;;18.00;99.90;;;;;;4979705;28;20723;-68
2022/08/11 00:25:15;;;;;;;0.00;0.00;;;18.00;99.90;;;;;;4979715;28;20544;-67
2022/08/11 00:27:43;;;;;;;0.00;0.00;;;17.90;99.90;;;;;;4979386;28;20483;-67
2022/08/11 00:30:12;;;;;;;0.00;0.00;;;17.90;99.90;;;;;;4979533;28;20453;-67
2022/08/11 00:32:43;;;;;;;0.00;0.00;;;17.90;99.90;;;;;;4979620;28;20685;-68
2022/08/11 00:35:16;;;;;;;0.00;0.00;;;17.90;99.90;;;;;;4995136;28;20472;-68
2022/08/11 00:38:06;;;;;;;0.00;0.00;;;17.90;99.90;;;;;;4999082;28;20733;-68
2022/08/11 00:40:40;;;;;;;0.00;0.00;;;17.80;99.90;;;;;;4999127;28;20451;-68
2022/08/11 00:43:20;;;;;;;0.00;0.00;;;17.80;99.90;;;;;;4999060;28;20436;-68
2022/08/11 00:46:09;;;;;;;0.00;0.00;;;17.70;99.90;;;;;;4998752;28;20578;-68
2022/08/11 00:48:45;;;;;;;0.00;0.00;;;17.70;99.90;;;;;;4998641;28;20485;-66
2022/08/11 00:51:25;;;;;;;0.00;0.00;;;17.70;99.90;;;;;;4998484;28;20454;-66
2022/08/11 00:54:32;;;;;;;0.00;0.00;;;17.60;99.90;;;;;;4998882;28;20455;-68
2022/08/11 00:57:34;;;;;;;0.00;0.00;;;17.50;99.90;;;;;;4998454;28;20491;-68
2022/08/11 01:00:13;;;;;;;0.00;0.00;;;17.50;99.90;;;;;;4998454;28;20968;-70
2022/08/11 01:03:13;;;;;;;0.00;0.00;;;17.50;99.90;;;;;;4999489;28;20451;-73
2022/08/11 01:06:03;;;;;;;0.00;0.00;;;17.50;99.90;;;;;;4982649;28;20527;-80
2022/08/11 01:09:08;;;;;;;0.00;0.00;;;17.60;99.90;;;;;;4983268;28;20502;-75
2022/08/11 01:12:14;;;;;;;0.00;0.00;;;17.60;99.90;;;;;;4999463;28;20457;-77
2022/08/11 01:15:34;;;;;;;0.00;0.00;;;17.50;99.90;;;;;;4997359;28;20477;-77
2022/08/11 01:18:42;;;;;;;0.00;0.00;;;17.50;99.90;;;;;;4980964;28;20460;-77
2022/08/11 01:21:39;;;;;;;0.00;0.00;;;17.50;99.90;;;;;;4979069;28;20556;-77
2022/08/11 01:24:42;;;;;;;0.00;0.00;;;17.50;99.90;;;;;;4981234;28;20443;-81
2022/08/11 01:27:42;;;;;;;0.00;0.00;;;17.50;99.90;;;;;;4983550;28;20853;-75
2022/08/11 01:30:46;;;;;;;0.00;0.00;;;17.50;99.90;;;;;;4979689;28;20443;-80
2022/08/11 01:34:04;;;;;;;0.00;0.00;;;17.50;99.90;;;;;;4978582;28;20909;-75
2022/08/11 01:37:08;;;;;;;0.00;0.00;;;17.40;99.90;;;;;;4909930;29;20508;-79
2022/08/11 01:40:14;;;;;;;0.00;0.00;;;17.40;99.90;;;;;;4989434;28;20536;-79
2022/08/11 01:46:09;;;;;;;0.00;0.00;;;17.30;99.90;;;;;;4977610;28;20742;-73
2022/08/11 01:48:42;;;;;;;0.00;0.00;;;17.30;99.90;;;;;;4978108;28;20482;-71
2022/08/11 01:51:33;;;;;;;0.00;0.00;;;17.30;99.90;;;;;;4976244;28;20893;-71
2022/08/11 01:54:07;;;;;;;0.00;0.00;;;17.30;99.90;;;;;;4976905;28;20486;-71
2022/08/11 01:56:55;;;;;;;0.00;0.00;;;17.30;99.90;;;;;;4976641;28;20596;-71
2022/08/11 01:59:28;;;;;;;0.00;0.00;;;17.30;99.90;;;;;;4977762;28;21014;-72
2022/08/11 02:02:48;;;;;;;0.00;0.00;;;17.20;99.90;;;;;;4978371;28;20796;-72
2022/08/11 02:05:43;;;;;;;0.00;0.00;;;17.20;99.90;;;;;;4978161;28;20548;-71
2022/08/11 02:08:23;;;;;;;0.00;0.00;;;17.20;99.90;;;;;;4978266;28;20571;-71
2022/08/11 02:11:30;;;;;;;0.00;0.00;;;17.20;99.90;;;;;;4978194;28;20885;-70
2022/08/11 02:14:21;;;;;;;0.00;0.00;;;17.10;99.90;;;;;;4977884;28;20450;-70
2022/08/11 02:26:31;;;;;;;0.00;0.00;;;17.10;99.90;;;;;;4982218;28;21156;-71
2022/08/11 02:29:10;;;;;;;0.00;0.00;;;17.10;99.90;;;;;;4982220;28;20829;-71
2022/08/11 02:35:01;;;;;;;0.00;0.00;;;17.00;99.90;;;;;;4965260;28;20462;-69
2022/08/11 02:37:43;;;;;;;0.00;0.00;;;17.00;99.90;;;;;;4982216;28;20845;-72
2022/08/11 02:40:21;;;;;;;0.00;0.00;;;17.00;99.90;;;;;;4981752;28;20700;-70
2022/08/11 02:42:57;;;;;;;0.00;0.00;;;17.00;99.90;;;;;;4982106;28;20526;-72
2022/08/11 02:45:46;;;;;;;0.00;0.00;;;17.00;99.90;;;;;;4981717;28;20584;-70
2022/08/11 02:51:20;;;;;;;0.00;0.00;;;17.00;99.90;;;;;;4981984;28;20810;-73
2022/08/11 02:54:02;;;;;;;0.00;0.00;;;17.00;99.90;;;;;;4982921;28;20445;-72
2022/08/11 02:56:43;;;;;;;0.00;0.00;;;17.00;99.90;;;;;;4983327;28;20828;-73
2022/08/11 03:02:22;;;;;;;0.00;0.00;;;16.90;99.90;;;;;;4981409;28;21122;-72
2022/08/11 03:05:07;;;;;;;0.00;0.00;;;16.90;99.90;;;;;;4981885;28;20666;-73
2022/08/11 03:07:48;;;;;;;0.00;0.00;;;16.90;99.90;;;;;;4981439;28;20487;-73
2022/08/11 03:10:22;;;;;;;0.00;0.00;;;16.90;99.90;;;;;;4981789;28;20479;-73
2022/08/11 03:18:40;;;;;;;0.00;0.00;;;16.90;99.90;;;;;;4981141;28;20675;-74
2022/08/11 03:21:17;;;;;;;0.00;0.00;;;16.80;99.90;;;;;;4981497;28;20447;-74
2022/08/11 03:24:01;;;;;;;0.00;0.00;;;16.80;99.90;;;;;;4981762;28;20466;-73
2022/08/11 03:26:37;;;;;;;0.00;0.00;;;16.80;99.90;;;;;;4981162;28;20495;-73
2022/08/11 03:29:28;;;;;;;0.00;0.00;;;16.80;99.90;;;;;;4981054;28;20558;-73
2022/08/11 03:32:02;;;;;;;0.00;0.00;;;16.80;99.90;;;;;;4980388;28;20974;-73
2022/08/11 03:34:34;;;;;;;0.00;0.00;;;16.80;99.90;;;;;;4981128;28;20713;-73
2022/08/11 03:37:50;;;;;;;0.00;0.00;;;16.80;99.90;;;;;;4981746;28;20452;-73
2022/08/11 03:43:37;;;;;;;0.00;0.00;;;16.80;99.90;;;;;;4980991;28;20517;-73
2022/08/11 03:46:27;;;;;;;0.00;0.00;;;16.80;99.90;;;;;;4980498;28;20525;-73
2022/08/11 03:49:05;;;;;;;0.00;0.00;;;16.70;99.90;;;;;;4980456;28;20475;-74
2022/08/11 03:51:47;;;;;;;0.00;0.00;;;16.70;99.90;;;;;;4980546;28;20737;-74
2022/08/11 03:54:34;;;;;;;0.00;0.00;;;16.70;99.90;;;;;;4980571;28;20450;-72
2022/08/11 03:57:36;;;;;;;0.00;0.00;;;16.70;99.90;;;;;;4980309;28;20692;-74
2022/08/11 04:00:15;;;;;;;0.00;0.00;;;16.70;99.90;;;;;;4981043;28;20448;-72
2022/08/11 04:03:16;;;;;;;0.00;0.00;;;16.70;99.90;;;;;;4981041;28;20820;-73
2022/08/11 04:06:23;;;;;;;0.00;0.00;;;16.60;99.90;;;;;;4981058;28;20464;-74
2022/08/11 04:09:46;;;;;;;0.00;0.00;;;16.60;99.90;;;;;;4979970;28;20581;-74
2022/08/11 04:12:27;;;;;;;0.00;0.00;;;16.60;99.90;;;;;;4974520;28;20546;-74
2022/08/11 04:19:05;;;;;;;0.00;0.00;;;16.60;99.90;;;;;;4957754;28;20506;-74
2022/08/11 04:21:58;;;;;;;0.00;0.00;;;16.60;99.90;;;;;;4957533;28;20530;-74
2022/08/11 04:25:07;;;;;;;0.00;0.00;;;16.60;99.90;;;;;;4957529;28;20463;-73
2022/08/11 04:28:24;;;;;;;0.00;0.00;;;16.60;99.90;;;;;;4957446;28;20537;-73
2022/08/11 04:31:08;;;;;;;0.00;0.00;;;16.60;99.90;;;;;;4935592;28;20582;-73
2022/08/11 04:34:06;;;;;;;0.00;0.00;;;16.60;99.90;;;;;;4957757;28;20466;-74
2022/08/11 04:40:41;;;;;;;0.00;0.00;;;16.60;99.90;;;;;;4979920;28;20454;-74
2022/08/11 04:43:52;;;;;;;0.00;0.00;;;16.60;99.90;;;;;;4979604;28;20669;-75
2022/08/11 04:46:59;;;;;;;0.00;0.00;;;16.60;99.90;;;;;;4976919;28;20505;-73
2022/08/11 05:02:49;;;;;;;0.00;0.00;;;16.80;99.90;;;;;;4979911;28;20447;-74
2022/08/11 05:05:32;;;;;;;0.00;0.00;;;16.80;99.90;;;;;;4979562;28;20449;-74
2022/08/11 05:08:38;;;;;;;0.00;0.00;;;16.90;99.90;;;;;;4980082;28;21135;-73
2022/08/11 05:11:37;;;;;;;0.00;0.00;;;17.00;99.90;;;;;;4979923;28;20478;-73
2022/08/11 05:34:51;;;;;;;0.00;0.00;;;17.40;99.90;;;;;;4979146;28;20440;-73
2022/08/11 05:37:25;;;;;;;0.00;0.00;;;17.50;99.90;;;;;;4980390;28;20463;-74
2022/08/11 05:57:09;;;;;;;0.00;0.00;;;18.00;99.90;;;;;;4983606;28;20451;-72
2022/08/11 06:00:04;;;;;;;0.00;0.00;;;18.10;99.90;;;;;;4981006;28;20926;-73
2022/08/11 06:02:43;;;;;;;0.00;0.00;;;18.20;99.90;;;;;;4980354;28;20544;-74
2022/08/11 06:05:12;;;;;;;0.00;0.00;;;18.20;99.90;;;;;;4977571;28;20484;-75
2022/08/11 06:07:41;;;;;;;0.00;0.00;;;18.30;99.90;;;;;;4983218;28;20556;-73
2022/08/11 06:10:26;;;;;;;0.00;0.00;;;18.50;99.90;;;;;;4984096;28;20575;-73
2022/08/11 06:12:57;;;;;;;0.00;0.00;;;18.60;99.90;;;;;;4973380;28;20453;-72
2022/08/11 06:15:27;;;;;;;0.00;0.00;;;18.70;99.90;;;;;;4983206;28;20540;-71
2022/08/11 06:17:58;;;;;;;0.00;0.00;;;18.70;99.90;;;;;;4981744;28;21107;-73
2022/08/11 06:20:31;;;;;;;0.00;0.00;;;18.90;99.90;;;;;;4983747;28;20430;-72
2022/08/11 06:23:05;;;;;;;0.00;0.00;;;19.00;99.90;;;;;;4983852;28;20450;-71
2022/08/11 06:25:34;;;;;;;0.00;0.00;;;19.10;99.90;;;;;;4982711;28;20446;-71
2022/08/11 06:28:05;;;;;;;0.00;0.00;;;19.10;99.90;;;;;;4975237;28;20467;-72
2022/08/11 06:30:39;;;;;;;0.00;0.00;;;19.20;99.90;;;;;;4981201;28;20524;-70
2022/08/11 06:33:10;;;;;;;0.00;0.00;;;19.30;99.90;;;;;;4981420;28;20450;-71
2022/08/11 06:35:48;;;;;;;0.00;0.00;;;19.40;99.90;;;;;;4973493;28;20451;-71
2022/08/11 06:38:27;;;;;;;0.00;0.00;;;19.50;99.90;;;;;;4975460;28;20484;-70
2022/08/11 06:43:54;;;;;;;0.00;0.00;;;19.70;99.90;;;;;;4980915;28;21007;-71
2022/08/11 06:46:28;;;;;;;0.00;0.00;;;19.80;99.90;;;;;;4982319;28;20455;-71
2022/08/11 06:48:56;;;;;;;0.00;0.00;;;19.90;99.90;;;;;;4976984;28;20474;-71
2022/08/11 06:51:24;;;;;;;0.00;0.00;;;20.00;99.90;;;;;;4976696;28;20846;-70
2022/08/11 06:53:56;;;;;;;0.00;0.00;;;20.10;99.90;;;;;;4992634;28;20479;-70
2022/08/11 07:02:32;;;;;;;0.00;0.00;;;20.50;99.90;;;;;;4981440;28;20726;-70
2022/08/11 07:05:03;;;;;;;0.00;0.00;;;20.60;99.90;;;;;;4978410;28;20454;-68
2022/08/11 07:17:26;;;;;;;0.00;0.00;;;21.00;99.90;;;;;;4940815;28;20447;-69
2022/08/11 07:28:57;;;;;;;0.00;0.00;;;21.40;99.90;;;;;;4957913;28;20463;-69
2022/08/11 07:31:31;;;;;;;0.00;0.00;;;21.50;99.90;;;;;;4980469;28;20858;-69
2022/08/11 07:34:10;;;;;;;0.00;0.00;;;21.60;99.90;;;;;;4980412;28;20748;-69
2022/08/11 07:36:51;;;;;;;0.00;0.00;;;21.70;99.90;;;;;;4981380;28;20474;-67
2022/08/11 07:39:21;;;;;;;0.00;0.00;;;21.90;99.90;;;;;;4979626;28;20483;-67
2022/08/11 07:41:52;;;;;;;0.00;0.00;;;22.00;99.90;;;;;;4979547;28;20462;-69
2022/08/11 07:44:24;;;;;;;0.00;0.00;;;22.10;99.90;;;;;;4981184;28;20495;-69
2022/08/11 07:52:39;;;;;;;0.00;0.00;;;22.40;99.90;;;;;;4979176;28;20482;-69
2022/08/11 07:55:14;;;;;;;0.00;0.00;;;22.50;99.90;;;;;;4981263;28;20481;-70
2022/08/11 08:17:48;;;;;;;0.00;0.00;;;23.30;99.90;;;;;;4980798;28;20475;-68
2022/08/11 08:20:38;;;;;;;0.00;0.00;;;23.50;99.90;;;;;;4979961;28;20453;-68
2022/08/11 08:23:07;;;;;;;0.00;0.00;;;23.60;99.90;;;;;;4980345;28;20819;-68
2022/08/11 08:25:40;;;;;;;0.00;0.00;;;23.70;99.90;;;;;;4979296;28;20856;-67
2022/08/11 08:28:12;;;;;;;0.00;0.00;;;23.80;99.90;;;;;;4979383;28;20548;-67
2022/08/11 08:30:46;;;;;;;0.00;0.00;;;23.90;99.90;;;;;;4977011;28;20519;-67
2022/08/11 08:33:18;;;;;;;0.00;0.00;;;24.10;99.90;;;;;;4976315;28;20941;-67
2022/08/11 08:35:51;;;;;;;0.00;0.00;;;24.10;99.90;;;;;;4980189;28;21165;-69
2022/08/11 08:38:23;;;;;;;0.00;0.00;;;24.20;99.90;;;;;;4979146;28;21128;-69
2022/08/11 08:40:54;;;;;;;0.00;0.00;;;24.30;99.90;;;;;;4979185;28;20468;-69
2022/08/11 08:43:24;;;;;;;0.00;0.00;;;24.40;99.90;;;;;;4979924;28;20451;-67
2022/08/11 08:45:55;;;;;;;0.00;0.00;;;24.40;99.90;;;;;;4979014;28;20457;-67
2022/08/11 08:48:25;;;;;;;0.00;0.00;;;24.50;99.90;;;;;;4978920;28;20476;-67
2022/08/11 08:53:49;;;;;;;0.00;0.00;;;24.60;99.90;;;;;;4978124;28;20851;-66
2022/08/11 08:56:28;;;;;;;0.00;0.00;;;24.70;99.90;;;;;;4980298;28;21118;-67
2022/08/11 08:58:59;;;;;;;0.00;0.00;;;24.80;99.90;;;;;;4975581;28;20551;-67
2022/08/11 09:01:30;;;;;;;0.00;0.00;;;24.80;99.90;;;;;;4974163;28;20460;-68
2022/08/11 09:03:58;;;;;;;0.00;0.00;;;24.90;99.90;;;;;;4970489;28;20969;-68
2022/08/11 09:06:39;;;;;;;0.00;0.00;;;25.00;99.90;;;;;;4968741;28;20446;-67
2022/08/11 09:09:09;;;;;;;0.00;0.00;;;25.10;99.90;;;;;;4979461;28;20511;-68
2022/08/11 09:11:53;;;;;;;0.00;0.00;;;25.20;99.90;;;;;;4978666;28;20493;-66
2022/08/11 09:14:23;;;;;;;0.00;0.00;;;25.30;99.90;;;;;;4975782;28;20481;-68
2022/08/11 09:16:52;;;;;;;0.00;0.00;;;25.40;99.90;;;;;;4978686;28;21068;-67
2022/08/11 09:19:21;;;;;;;0.00;0.00;;;25.50;99.90;;;;;;4979110;28;20471;-67
2022/08/11 09:26:58;;;;;;;0.00;0.00;;;25.50;99.90;;;;;;4974496;28;20605;-66
2022/08/11 09:27:27;;;;;;;0.00;0.00;;;25.60;99.90;;;;;;4967396;28;20463;-64
2022/08/11 09:29:56;;;;;;;0.00;0.00;;;25.60;99.90;;;;;;4979148;28;20456;-66
2022/08/11 09:32:28;;;;;;;0.00;0.00;;;25.70;99.90;;;;;;4977934;28;20481;-66
2022/08/11 09:35:02;;;;;;;0.00;0.00;;;25.80;99.90;;;;;;4972385;28;20443;-66
2022/08/11 09:40:30;;;;;;;0.00;0.00;;;26.00;99.90;;;;;;4971704;28;20549;-66
2022/08/11 09:45:51;;;;;;;0.00;0.00;;;26.10;99.90;;;;;;4967242;28;20506;-65
2022/08/11 09:48:19;;;;;;;0.00;0.00;;;26.10;99.90;;;;;;4968493;28;20462;-66
2022/08/11 09:50:49;;;;;;;0.00;0.00;;;26.10;99.90;;;;;;4970103;28;20537;-65
2022/08/11 09:53:19;;;;;;;0.00;0.00;;;26.20;99.90;;;;;;4970115;28;20491;-65
2022/08/11 09:58:58;;;;;;;0.00;0.00;;;26.30;99.90;;;;;;4959597;28;20459;-66
2022/08/11 10:01:30;;;;;;;0.00;0.00;;;26.40;99.90;;;;;;4959489;28;20424;-65
2022/08/11 10:04:03;;;;;;;0.00;0.00;;;26.40;99.90;;;;;;4960129;28;20445;-66
2022/08/11 10:09:24;;;;;;;0.00;0.00;;;26.50;99.90;;;;;;4976331;28;20850;-64
2022/08/11 10:11:57;;;;;;;0.00;0.00;;;26.60;99.90;;;;;;4978628;28;20481;-67
2022/08/11 10:17:15;;;;;;;0.00;0.00;;;26.60;99.90;;;;;;4978221;28;20446;-69
2022/08/11 10:19:46;;;;;;;0.00;0.00;;;26.70;99.90;;;;;;4973937;28;20450;-69
2022/08/11 10:28:08;;;;;;;0.00;0.00;;;26.80;99.90;;;;;;4978425;28;20998;-65
2022/08/11 10:33:59;;;;;;;0.00;0.00;;;27.00;99.70;;;;;;4936646;29;20924;-65
2022/08/11 10:36:29;;;;;;;0.00;0.00;;;27.00;99.60;;;;;;4936584;29;20446;-65
2022/08/11 10:38:59;;;;;;;0.00;0.00;;;27.00;99.90;;;;;;4972476;28;20479;-65
2022/08/11 10:44:38;;;;;;;0.00;0.00;;;27.10;99.30;;;;;;4982395;28;20440;-69
2022/08/11 11:00:59;;;;;;;0.00;0.00;;;27.30;99.00;;;;;;4984379;28;20578;-69
2022/08/11 11:03:33;;;;;;;0.00;0.00;;;27.40;98.90;;;;;;4970396;28;20433;-71
2022/08/11 11:06:08;;;;;;;0.00;0.00;;;27.40;99.10;;;;;;4970218;28;20535;-69
2022/08/11 11:09:00;;;;;;;0.00;0.00;;;27.40;98.60;;;;;;4971819;28;20471;-68
2022/08/11 11:20:07;;;;;;;0.00;0.00;;;27.60;97.80;;;;;;4964984;28;21067;-68
2022/08/11 11:23:01;;;;;;;0.00;0.00;;;27.70;98.10;;;;;;4967682;28;20449;-69
2022/08/11 11:26:13;;;;;;;0.00;0.00;;;27.70;98.10;;;;;;4980904;28;20832;-69
2022/08/11 11:29:00;;;;;;;0.00;0.00;;;27.70;98.20;;;;;;4976776;28;20485;-66
2022/08/11 11:31:36;;;;;;;0.00;0.00;;;27.80;98.10;;;;;;4980167;28;20777;-66
2022/08/11 11:34:17;;;;;;;0.00;0.00;;;27.80;98.10;;;;;;4971707;28;21149;-65
2022/08/11 11:36:50;;;;;;;0.00;0.00;;;27.80;97.50;;;;;;4981019;28;20529;-66
2022/08/11 11:39:22;;;;;;;0.00;0.00;;;27.90;97.60;;;;;;4976309;28;20488;-65
2022/08/11 11:41:54;;;;;;;0.00;0.00;;;27.90;97.50;;;;;;4980076;28;20459;-66
2022/08/11 11:44:23;;;;;;;0.00;0.00;;;27.80;96.90;;;;;;4972403;28;21011;-65
2022/08/11 11:46:52;;;;;;;0.00;0.00;;;27.90;96.90;;;;;;4972699;28;20429;-66
2022/08/11 11:49:23;;;;;;;0.00;0.00;;;27.90;96.70;;;;;;4971649;28;20463;-66
2022/08/11 11:51:59;;;;;;;0.00;0.00;;;28.00;97.00;;;;;;4970388;28;21624;-66
2022/08/11 11:54:31;;;;;;;0.00;0.00;;;28.00;97.00;;;;;;4973581;28;21076;-66
2022/08/11 12:01:14;;;;;;;0.00;0.00;;;28.10;96.60;;;;;;4969973;28;20441;-64
2022/08/11 12:02:36;;;;;;;0.00;0.00;;;28.30;96.90;;;;;;4971474;28;20467;-65
2022/08/11 12:05:06;;;;;;;0.00;0.00;;;28.30;97.00;;;;;;4969576;28;20502;-66
2022/08/11 12:10:38;;;;;;;0.00;0.00;;;28.30;95.80;;;;;;4973424;28;20445;-65
2022/08/11 12:15:53;;;;;;;0.00;0.00;;;28.30;95.40;;;;;;4971806;28;20731;-65
2022/08/11 12:18:43;;;;;;;0.00;0.00;;;28.30;95.70;;;;;;4979888;28;21130;-64
2022/08/11 12:21:15;;;;;;;0.00;0.00;;;28.40;95.90;;;;;;4980861;28;20639;-63
2022/08/11 12:29:44;;;;;;;0.00;0.00;;;28.50;95.40;;;;;;4968616;28;21026;-66
2022/08/11 12:32:12;;;;;;;0.00;0.00;;;28.40;95.30;;;;;;4980055;28;20496;-66
2022/08/11 12:34:40;;;;;;;0.00;0.00;;;28.40;95.40;;;;;;4980675;28;20519;-64
2022/08/11 12:37:11;;;;;;;0.00;0.00;;;28.40;95.50;;;;;;4980183;28;20503;-65
2022/08/11 12:46:08;;;;;;;0.00;0.00;;;28.50;95.10;;;;;;4937865;29;20450;-66
2022/08/11 12:54:51;;;;;;;0.00;0.00;;;28.60;94.90;;;;;;4975344;28;20677;-73
2022/08/11 13:05:46;;;;;;;0.00;0.00;;;28.70;95.10;;;;;;4963260;28;21030;-66
2022/08/11 13:08:14;;;;;;;0.00;0.00;;;28.80;95.30;;;;;;4970157;28;20462;-65
2022/08/11 13:13:31;;;;;;;0.00;0.00;;;28.80;94.90;;;;;;4970938;28;20779;-65
2022/08/11 13:16:22;;;;;;;0.00;0.00;;;28.80;95.00;;;;;;4971127;28;20744;-65
2022/08/11 13:18:51;;;;;;;0.00;0.00;;;28.90;95.00;;;;;;4970697;28;20467;-65
2022/08/11 13:21:23;;;;;;;0.00;0.00;;;28.90;94.50;;;;;;4968016;28;20555;-65
2022/08/11 13:23:54;;;;;;;0.00;0.00;;;28.90;94.40;;;;;;4966860;28;20538;-65
2022/08/11 13:26:32;;;;;;;0.00;0.00;;;28.90;94.60;;;;;;4966760;28;20458;-65
2022/08/11 13:29:21;;;;;;;0.00;0.00;;;28.90;94.60;;;;;;4966721;28;20466;-66
2022/08/11 13:31:50;;;;;;;0.00;0.00;;;28.90;94.80;;;;;;4969235;28;21289;-65
2022/08/11 13:34:19;;;;;;;0.00;0.00;;;28.80;94.30;;;;;;4968079;28;20483;-65
2022/08/11 13:36:51;;;;;;;0.00;0.00;;;28.90;94.40;;;;;;4968053;28;21005;-65
2022/08/11 13:39:21;;;;;;;0.00;0.00;;;29.00;94.50;;;;;;4965875;28;21307;-64
2022/08/11 13:41:55;;;;;;;0.00;0.00;;;29.00;94.40;;;;;;4978431;28;20460;-66
2022/08/11 13:44:26;;;;;;;0.00;0.00;;;29.00;94.60;;;;;;4976875;28;20813;-67
2022/08/11 13:46:57;;;;;;;0.00;0.00;;;29.10;94.70;;;;;;4971023;28;20447;-67
2022/08/11 13:49:26;;;;;;;0.00;0.00;;;29.10;95.20;;;;;;4978886;28;20500;-67
2022/08/11 13:51:55;;;;;;;0.00;0.00;;;29.10;94.80;;;;;;4979322;28;20560;-66
2022/08/11 13:54:27;;;;;;;0.00;0.00;;;29.20;94.70;;;;;;4978635;28;20479;-68
2022/08/11 13:57:05;;;;;;;0.00;0.00;;;29.20;94.60;;;;;;4975651;28;20462;-66
2022/08/11 13:59:40;;;;;;;0.00;0.00;;;29.20;94.30;;;;;;4977137;28;20478;-65
2022/08/11 14:02:26;;;;;;;0.00;0.00;;;29.20;94.10;;;;;;4961917;28;20564;-66
2022/08/11 14:05:01;;;;;;;0.00;0.00;;;29.20;93.70;;;;;;4975065;28;21152;-65
2022/08/11 14:07:35;;;;;;;0.00;0.00;;;29.20;93.70;;;;;;4974145;28;20443;-67
2022/08/11 14:10:05;;;;;;;0.00;0.00;;;29.20;93.60;;;;;;4977134;28;20439;-65
2022/08/11 14:15:25;;;;;;;0.00;0.00;;;29.30;93.50;;;;;;4968852;28;20596;-67
2022/08/11 14:17:55;;;;;;;0.00;0.00;;;29.30;93.70;;;;;;4975589;28;20566;-67
2022/08/11 14:22:05;;;;;;;0.00;0.00;;;29.20;93.60;;;;;;4971786;28;20927;-66
2022/08/11 14:23:13;;;;;;;0.00;0.00;;;29.20;93.30;;;;;;4972969;28;20636;-66
2022/08/11 14:26:22;;;;;;;0.00;0.00;;;29.20;93.50;;;;;;4968322;28;20526;-67
2022/08/11 14:28:34;;;;;;;0.00;0.00;;;29.20;93.50;;;;;;4971161;28;20450;-66
2022/08/11 14:31:12;;;;;;;0.00;0.00;;;29.20;93.00;;;;;;4974773;28;20438;-66
2022/08/11 14:33:40;;;;;;;0.00;0.00;;;29.10;93.40;;;;;;4971400;28;20534;-66
2022/08/11 14:36:31;;;;;;;0.00;0.00;;;29.00;93.60;;;;;;4970180;28;20838;-68
2022/08/11 14:39:03;;;;;;;0.00;0.00;;;29.00;93.70;;;;;;4974921;28;20698;-67
2022/08/11 14:47:30;;;;;;;0.00;0.00;;;29.00;93.30;;;;;;4971141;28;20443;-68
2022/08/11 14:50:01;;;;;;;0.00;0.00;;;29.00;93.20;;;;;;4982030;28;20596;-66
2022/08/11 14:52:50;;;;;;;0.00;0.00;;;29.00;93.50;;;;;;4975387;28;21053;-66
2022/08/11 14:58:08;;;;;;;0.00;0.00;;;29.00;94.00;;;;;;4975684;28;20570;-66
2022/08/11 15:00:41;;;;;;;0.00;0.00;;;29.00;94.40;;;;;;4973589;28;20442;-66
2022/08/11 15:03:10;;;;;;;0.00;0.00;;;29.00;94.60;;;;;;4973283;28;20436;-66
2022/08/11 15:05:47;;;;;;;0.00;0.00;;;29.10;94.80;;;;;;4970847;28;20511;-66
2022/08/11 15:12:07;;;;;;;0.00;0.00;;;29.10;94.90;;;;;;4971381;28;20617;-67
2022/08/11 15:14:00;;;;;;;0.00;0.00;;;29.10;95.10;;;;;;4969898;28;20446;-68
2022/08/11 15:19:19;;;;;;;0.00;0.00;;;29.10;94.90;;;;;;4981563;28;20489;-64
2022/08/11 15:24:54;;;;;;;0.00;0.00;;;29.10;95.20;;;;;;4959003;28;20443;-67
2022/08/11 15:38:44;;;;;;;0.00;0.00;;;28.90;95.50;;;;;;4970555;28;20473;-64
2022/08/11 15:47:14;;;;;;;0.00;0.00;;;28.80;95.50;;;;;;4971545;28;20431;-64
2022/08/11 15:49:45;;;;;;;0.00;0.00;;;28.70;95.50;;;;;;4973311;28;20976;-64
2022/08/11 15:52:43;;;;;;;0.00;0.00;;;28.70;95.40;;;;;;4971979;28;20458;-65
2022/08/11 15:55:11;;;;;;;0.00;0.00;;;28.60;95.50;;;;;;4968661;28;20572;-65
2022/08/11 16:06:17;;;;;;;0.00;0.00;;;28.50;95.60;;;;;;4978222;28;20836;-65
2022/08/11 16:08:50;;;;;;;0.00;0.00;;;28.50;95.70;;;;;;4980045;28;20509;-65
2022/08/11 16:11:19;;;;;;;0.00;0.00;;;28.40;95.60;;;;;;4980075;28;20530;-65
2022/08/11 16:16:37;;;;;;;0.00;0.00;;;28.30;95.50;;;;;;4979565;28;20763;-65
2022/08/11 16:19:09;;;;;;;0.00;0.00;;;28.20;95.60;;;;;;4980006;28;20480;-65
2022/08/11 16:21:41;;;;;;;0.00;0.00;;;28.20;95.60;;;;;;4979862;28;20830;-65
2022/08/11 16:24:12;;;;;;;0.00;0.00;;;28.20;95.60;;;;;;4970408;28;20491;-64
2022/08/11 16:27:03;;;;;;;0.00;0.00;;;28.20;95.60;;;;;;4970224;28;20703;-65
2022/08/11 16:29:43;;;;;;;0.00;0.00;;;28.10;95.80;;;;;;4973561;28;20513;-66
2022/08/11 16:32:19;;;;;;;0.00;0.00;;;28.20;95.80;;;;;;4978822;28;20442;-65
2022/08/11 16:40:32;;;;;;;0.00;0.00;;;28.00;95.80;;;;;;4970093;28;20732;-64
2022/08/11 16:48:37;;;;;;;0.00;0.00;;;27.90;95.80;;;;;;4972029;28;20456;-65
2022/08/11 16:51:06;;;;;;;0.00;0.00;;;27.80;95.80;;;;;;4968250;28;21041;-66
2022/08/11 16:53:38;;;;;;;0.00;0.00;;;27.80;95.90;;;;;;4969159;28;20454;-65
2022/08/11 16:56:31;;;;;;;0.00;0.00;;;27.80;96.10;;;;;;4971523;28;21127;-66
2022/08/11 16:59:13;;;;;;;0.00;0.00;;;27.70;96.10;;;;;;4969709;28;20733;-66
2022/08/11 17:01:45;;;;;;;0.00;0.00;;;27.60;96.10;;;;;;4970265;28;20573;-66
2022/08/11 17:13:27;;;;;;;0.00;0.00;;;27.30;96.20;;;;;;4970651;28;20585;-65
2022/08/11 17:16:06;;;;;;;0.00;0.00;;;27.20;96.10;;;;;;4970673;28;20474;-65
2022/08/11 17:18:42;;;;;;;0.00;0.00;;;27.20;96.10;;;;;;4968741;28;20550;-65
2022/08/11 17:21:19;;;;;;;0.00;0.00;;;27.10;96.10;;;;;;4971246;28;20438;-66
2022/08/11 17:23:50;;;;;;;0.00;0.00;;;27.00;96.10;;;;;;4968776;28;20471;-66
2022/08/11 17:26:53;;;;;;;0.00;0.00;;;26.90;96.00;;;;;;4969291;28;20518;-65
2022/08/11 17:29:20;;;;;;;0.00;0.00;;;26.80;96.00;;;;;;4968892;28;20555;-66
2022/08/11 17:37:25;;;;;;;0.00;0.00;;;26.70;96.30;;;;;;4958189;28;20457;-65
2022/08/11 17:39:55;;;;;;;0.00;0.00;;;26.60;96.30;;;;;;4967832;28;20987;-69
2022/08/11 17:50:52;;;;;;;0.00;0.00;;;26.30;95.30;;;;;;4968650;28;20723;-67
2022/08/11 18:01:43;;;;;;;0.00;0.00;;;26.00;95.30;;;;;;4974030;28;20547;-68
2022/08/11 18:04:19;;;;;;;0.00;0.00;;;26.00;95.40;;;;;;4976248;28;20469;-68
2022/08/11 18:06:48;;;;;;;0.00;0.00;;;25.90;95.50;;;;;;4973609;28;20515;-66
